Gaylord, MI

2:51 PM EDT on August 04, 2015 (GMT -0400)
Otsego County | | Change Station
CLOSE
Current Station
Airport
Location: Gaylord,
Elevation: 1325 ft
Nearby Weather Stations

Elev 1325 ft 45.01 °N, 84.70 °W | Updated 58 minutes ago

Mostly Cloudy
Mostly Cloudy
68 °F
Feels Like 68 °F
N
10
Wind Variable Wind from West
Gusts 17 mph

Today
High -- | Low -- °F
--% Chance of Precip.
Yesterday
High -- | Low -- °F
Precip. -- in
6:27 AM 9:01 PM
Waning Gibbous, 75% visible
Pressure 29.91 in
Visibility 10.0 miles
Clouds Scattered Clouds 3300 ft
Mostly Cloudy 3900 ft
Mostly Cloudy 10000 ft
Dew Point 53 °F
Humidity 59%
Rainfall 0.07 in
Snow Depth Not available.
UV 6 out of 12
Pollen 6.40 out of 12
Air Quality Not available.
Flu Activity Not available.
METAR KGLR 041753Z AUTO 28009G15KT 10SM SCT033 BKN039 BKN100 20/12 A2991 RMK AO2 SLP127 60006 T02000117 10200 20150 50000

More Conditions Fewer Conditions

Pressure 29.91 in
Visibility 10.0 miles
Clouds Scattered Clouds 3300 ft
Mostly Cloudy 3900 ft
Mostly Cloudy 10000 ft
Dew Point 53 °F
Humidity 59%
Rainfall 0.07 in
Snow Depth Not available.
UV 6 out of 12
Pollen 6.40 out of 12
Air Quality Not available.
Flu Activity Not available.
METAR KGLR 041753Z AUTO 28009G15KT 10SM SCT033 BKN039 BKN100 20/12 A2991 RMK AO2 SLP127 60006 T02000117 10200 20150 50000

More Conditions Fewer Conditions

Nowcast | as of 1:00 PM EDT on August 4, 2015

At 2 PM...mostly cloudy. Temperature 63. Northwest winds 11 mph. At 4 PM...partly cloudy. Temperature 64. Northwest winds 13 mph. At 6 PM...partly cloudy. Temperature 63. Northwest winds 13 mph. At 8 PM...partly cloudy. Temperature 61. Northwest winds 9 mph.

×

10-Day Weather Forecast

×

Almanac

Astronomy

Aug. 04, 2015 Rise Set
Actual Time
Civil Twilight
Nautical Twilight
Astronomical Twilight
Moon
Length of Visible Light
Length of Day
Tomorrow will be .
, % of the Moon is Illuminated

Today's Extremes

State Highs State Lows

Community

WunderPhotos

Upload Photos

1,843,937 photos uploaded!

WunderBlogs® & News

Nearby

Air Quality

  Air Quality AQ Index Pollutant
Not available.

Snow Depth

Station Depth Elevation

Earthquake Activity

City Distance Mag. Time & Date
Minimum magnitude displayed is 2.5.

Coastal Water Temperatures

Place Temperature

Stations

Nearby Weather Stations

Station Location Temp. Windchill Dew Point Humidity Wind Precip. Elev Updated Type